createdAt,value
2022-10-04T00:00:42.261Z,10.40
2022-10-04T00:06:26.327Z,10.37
2022-10-04T00:11:57.775Z,10.38
2022-10-04T00:17:35.968Z,10.37
2022-10-04T00:23:25.223Z,10.36
2022-10-04T00:28:56.351Z,10.37
2022-10-04T00:34:30.162Z,10.37
2022-10-04T00:40:12.884Z,10.35
2022-10-04T00:45:47.425Z,10.35
2022-10-04T00:51:20.064Z,10.35
2022-10-04T00:56:52.593Z,10.35
2022-10-04T01:02:34.294Z,10.33
2022-10-04T01:08:20.504Z,10.33
2022-10-04T01:13:57.285Z,10.32
2022-10-04T01:19:32.387Z,10.32
2022-10-04T01:25:04.373Z,10.30
2022-10-04T01:30:35.414Z,10.30
2022-10-04T01:36:06.718Z,10.28
2022-10-04T01:41:47.679Z,10.28
2022-10-04T01:47:27.268Z,10.28
2022-10-04T01:53:06.450Z,10.29
2022-10-04T01:58:47.590Z,10.28
2022-10-04T02:04:26.116Z,10.29
2022-10-04T02:10:02.272Z,10.26
2022-10-04T02:15:35.989Z,10.26
2022-10-04T02:21:07.913Z,10.24
2022-10-04T02:26:39.603Z,10.25
2022-10-04T02:32:29.696Z,10.25
2022-10-04T02:38:08.217Z,10.23
2022-10-04T02:43:47.698Z,10.25
2022-10-04T02:49:32.162Z,10.22
2022-10-04T02:55:18.839Z,10.22
2022-10-04T03:00:58.979Z,10.22
2022-10-04T03:06:32.612Z,10.21
2022-10-04T03:12:04.567Z,10.20
2022-10-04T03:17:35.573Z,10.21
2022-10-04T03:23:08.182Z,10.20
2022-10-04T03:28:39.282Z,10.20
2022-10-04T03:34:15.958Z,10.19
2022-10-04T03:39:48.872Z,10.19
2022-10-04T03:45:21.023Z,10.19
2022-10-04T03:50:53.555Z,10.18
2022-10-04T03:56:30.573Z,10.18
2022-10-04T04:02:11.448Z,10.19
2022-10-04T04:08:01.437Z,10.19
2022-10-04T04:14:00.728Z,10.19
2022-10-04T04:19:33.005Z,10.18
2022-10-04T04:25:08.526Z,10.19
2022-10-04T04:30:44.690Z,10.19
2022-10-04T04:36:17.357Z,10.19
2022-10-04T04:41:50.773Z,10.16
2022-10-04T04:47:38.561Z,10.15
2022-10-04T04:53:29.539Z,10.14
2022-10-04T04:59:04.117Z,10.13
2022-10-04T05:04:34.988Z,10.13
2022-10-04T05:10:21.539Z,10.13
2022-10-04T05:15:54.609Z,10.10
2022-10-04T05:21:28.810Z,10.10
2022-10-04T05:27:08.238Z,10.09
2022-10-04T05:32:54.605Z,10.09
2022-10-04T05:38:39.909Z,10.09
2022-10-04T05:44:26.295Z,10.11
2022-10-04T05:49:59.388Z,10.10
2022-10-04T05:55:51.244Z,10.11
2022-10-04T06:02:07.520Z,10.11
2022-10-04T06:07:51.045Z,10.13
2022-10-04T06:13:51.578Z,10.14
2022-10-04T06:19:45.413Z,10.17
2022-10-04T06:25:23.844Z,10.18
2022-10-04T06:31:33.634Z,10.22
2022-10-04T06:37:38.167Z,10.27
2022-10-04T06:43:12.108Z,10.30
2022-10-04T06:49:02.399Z,10.35
2022-10-04T06:54:33.141Z,10.40
2022-10-04T07:00:10.343Z,10.43
2022-10-04T07:05:49.025Z,10.46
2022-10-04T07:11:32.890Z,10.45
2022-10-04T07:17:13.834Z,10.48
2022-10-04T07:22:58.594Z,10.53
2022-10-04T07:28:52.772Z,10.57
2022-10-04T07:34:28.999Z,10.61
2022-10-04T07:40:18.589Z,10.65
2022-10-04T07:45:49.874Z,10.68
2022-10-04T07:51:37.058Z,10.70
2022-10-04T07:57:14.094Z,10.74
2022-10-04T08:03:10.565Z,10.78
2022-10-04T08:09:07.485Z,10.85
2022-10-04T08:14:54.939Z,10.91
2022-10-04T08:20:58.140Z,11.01
2022-10-04T08:26:46.644Z,11.12
2022-10-04T08:32:23.769Z,11.23
2022-10-04T08:38:27.625Z,11.36
2022-10-04T08:44:17.455Z,11.47
2022-10-04T08:50:10.368Z,11.54
2022-10-04T08:55:49.335Z,11.64
2022-10-04T09:01:42.243Z,11.74
2022-10-04T09:07:49.656Z,11.83
2022-10-04T09:13:31.492Z,11.89
2022-10-04T09:19:08.175Z,11.98
2022-10-04T09:24:45.218Z,12.01
2022-10-04T09:30:21.694Z,12.05
2022-10-04T09:36:05.048Z,12.08
2022-10-04T09:41:48.560Z,12.12
2022-10-04T09:47:46.221Z,12.18
2022-10-04T09:53:29.168Z,12.21
2022-10-04T09:59:27.530Z,12.24
2022-10-04T10:05:27.265Z,12.27
2022-10-04T10:11:26.047Z,12.30
2022-10-04T10:17:20.967Z,12.34
2022-10-04T10:23:19.705Z,12.36
2022-10-04T10:29:24.758Z,12.40
2022-10-04T10:35:09.150Z,12.45
2022-10-04T10:41:11.380Z,12.49
2022-10-04T10:46:49.697Z,12.51
2022-10-04T10:52:59.602Z,12.56
2022-10-04T10:58:54.777Z,12.59
2022-10-04T11:04:38.417Z,12.63
2022-10-04T11:10:23.732Z,12.67
2022-10-04T11:16:08.131Z,12.74
2022-10-04T11:22:07.026Z,12.81
2022-10-04T11:27:59.853Z,12.84
2022-10-04T11:34:16.521Z,12.86
2022-10-04T11:40:04.567Z,12.87
2022-10-04T11:46:14.282Z,12.93
2022-10-04T11:52:12.773Z,13.03
2022-10-04T11:58:11.736Z,13.11
2022-10-04T12:03:48.957Z,13.20
2022-10-04T12:09:43.040Z,13.29
2022-10-04T12:15:14.501Z,13.35
2022-10-04T12:20:53.400Z,13.37
2022-10-04T12:26:53.116Z,13.38
2022-10-04T12:33:03.604Z,13.38
2022-10-04T12:38:56.631Z,13.37
2022-10-04T12:44:42.451Z,13.36
2022-10-04T12:50:36.298Z,13.36
2022-10-04T12:56:22.042Z,13.36
2022-10-04T13:02:03.057Z,13.37
2022-10-04T13:07:53.029Z,13.37
2022-10-04T13:13:48.485Z,13.37
2022-10-04T13:19:39.837Z,13.36
2022-10-04T13:25:30.008Z,13.35
2022-10-04T13:31:43.272Z,13.34
2022-10-04T13:37:33.711Z,13.32
2022-10-04T13:43:26.367Z,13.29
2022-10-04T13:49:21.897Z,13.27
2022-10-04T13:55:20.583Z,13.26
2022-10-04T14:01:06.975Z,13.26
2022-10-04T14:06:57.430Z,13.26
2022-10-04T14:12:34.362Z,13.24
2022-10-04T14:19:04.237Z,13.25
2022-10-04T14:24:46.501Z,13.29
2022-10-04T14:30:23.929Z,13.29
2022-10-04T14:36:09.027Z,13.31
2022-10-04T14:42:06.801Z,13.32
2022-10-04T14:48:02.552Z,13.32
2022-10-04T14:54:11.918Z,13.31
2022-10-04T14:59:51.664Z,13.28
2022-10-04T15:05:37.835Z,13.27
2022-10-04T15:11:13.675Z,13.29
2022-10-04T15:16:56.806Z,13.29
2022-10-04T15:22:31.863Z,13.32
2022-10-04T15:28:06.206Z,13.35
2022-10-04T15:34:06.086Z,13.38
2022-10-04T15:40:04.157Z,13.37
2022-10-04T15:46:16.599Z,13.37
2022-10-04T15:52:11.312Z,13.38
2022-10-04T15:57:45.269Z,13.38
2022-10-04T16:03:21.303Z,13.36
2022-10-04T16:09:05.383Z,13.31
2022-10-04T16:14:47.020Z,13.29
2022-10-04T16:20:24.537Z,13.24
2022-10-04T16:26:07.214Z,13.20
2022-10-04T16:31:51.597Z,13.17
2022-10-04T16:37:32.108Z,13.15
2022-10-04T16:43:14.103Z,13.11
2022-10-04T16:48:53.926Z,13.06
2022-10-04T16:54:59.218Z,13.03
2022-10-04T17:00:36.526Z,13.01
2022-10-04T17:06:15.469Z,12.95
2022-10-04T17:12:08.070Z,12.92
2022-10-04T17:17:47.624Z,12.89
2022-10-04T17:24:06.989Z,12.86
2022-10-04T17:30:05.743Z,12.82
2022-10-04T17:35:59.108Z,12.79
2022-10-04T17:41:52.237Z,12.75
2022-10-04T17:48:00.357Z,12.71
2022-10-04T17:53:52.937Z,12.68
2022-10-04T17:59:30.869Z,12.64
2022-10-04T18:05:08.682Z,12.61
2022-10-04T18:10:56.510Z,12.59
2022-10-04T18:16:31.647Z,12.55
2022-10-04T18:22:15.244Z,12.53
2022-10-04T18:27:53.435Z,12.50
2022-10-04T18:33:36.001Z,12.47
2022-10-04T18:39:13.573Z,12.43
2022-10-04T18:44:59.548Z,12.40
2022-10-04T18:50:43.747Z,12.37
2022-10-04T18:56:15.692Z,12.36
2022-10-04T19:02:03.361Z,12.33
2022-10-04T19:07:43.978Z,12.29
2022-10-04T19:13:37.687Z,12.26
2022-10-04T19:19:14.816Z,12.23
2022-10-04T19:25:10.400Z,12.19
2022-10-04T19:31:09.621Z,12.15
2022-10-04T19:36:47.092Z,12.14
2022-10-04T19:42:33.540Z,12.12
2022-10-04T19:48:24.263Z,12.06
2022-10-04T19:54:04.052Z,12.05
2022-10-04T19:59:41.934Z,12.01
2022-10-04T20:05:26.859Z,11.97
2022-10-04T20:11:23.490Z,11.91
2022-10-04T20:16:54.722Z,11.89
2022-10-04T20:22:28.899Z,11.86
2022-10-04T20:28:01.969Z,11.82
2022-10-04T20:33:47.303Z,11.77
2022-10-04T20:39:42.737Z,11.74
2022-10-04T20:45:20.273Z,11.70
2022-10-04T20:50:52.776Z,11.65
2022-10-04T20:56:29.132Z,11.60
2022-10-04T21:02:05.339Z,11.56
2022-10-04T21:07:36.872Z,11.52
2022-10-04T21:13:44.145Z,11.48
2022-10-04T21:19:33.784Z,11.45
2022-10-04T21:25:25.862Z,11.41
2022-10-04T21:30:56.996Z,11.37
2022-10-04T21:36:28.236Z,11.34
2022-10-04T21:41:59.098Z,11.30
2022-10-04T21:47:30.003Z,11.29
2022-10-04T21:53:01.185Z,11.25
2022-10-04T21:58:32.429Z,11.23
2022-10-04T22:04:03.443Z,11.19
2022-10-04T22:09:36.135Z,11.14
2022-10-04T22:15:07.538Z,11.12
2022-10-04T22:20:38.826Z,11.08
2022-10-04T22:26:17.982Z,11.05
2022-10-04T22:31:52.801Z,11.03
2022-10-04T22:37:25.398Z,11.01
2022-10-04T22:42:57.602Z,10.97
2022-10-04T22:48:29.209Z,10.92
2022-10-04T22:54:00.690Z,10.90
2022-10-04T22:59:38.766Z,10.87
2022-10-04T23:05:16.747Z,10.85
2022-10-04T23:10:47.820Z,10.82
2022-10-04T23:16:21.659Z,10.76
2022-10-04T23:21:52.912Z,10.73
2022-10-04T23:27:23.964Z,10.70
2022-10-04T23:32:58.448Z,10.67
2022-10-04T23:38:30.679Z,10.64
2022-10-04T23:44:01.720Z,10.62
2022-10-04T23:49:32.665Z,10.58
2022-10-04T23:55:24.897Z,10.55
